sensor_id;sensor_type;location;lat;lon;timestamp;P1;durP1;ratioP1;P2;durP2;ratioP2
71106;SDS011;58763;47.982;11.516;2022-10-10T00:00:01;28.02;;;8.55;;
71106;SDS011;58763;47.982;11.516;2022-10-10T00:02:28;48.03;;;9.23;;
71106;SDS011;58763;47.982;11.516;2022-10-10T00:04:54;34.03;;;8.65;;
71106;SDS011;58763;47.982;11.516;2022-10-10T00:07:19;22.80;;;8.98;;
71106;SDS011;58763;47.982;11.516;2022-10-10T00:09:45;35.50;;;8.82;;
71106;SDS011;58763;47.982;11.516;2022-10-10T00:12:11;14.85;;;8.43;;
71106;SDS011;58763;47.982;11.516;2022-10-10T00:14:38;33.53;;;9.65;;
71106;SDS011;58763;47.982;11.516;2022-10-10T00:17:03;34.17;;;9.32;;
71106;SDS011;58763;47.982;11.516;2022-10-10T00:19:29;17.63;;;8.55;;
71106;SDS011;58763;47.982;11.516;2022-10-10T00:21:54;25.75;;;9.68;;
71106;SDS011;58763;47.982;11.516;2022-10-10T00:24:20;29.55;;;9.80;;
71106;SDS011;58763;47.982;11.516;2022-10-10T00:26:45;23.13;;;9.88;;
71106;SDS011;58763;47.982;11.516;2022-10-10T00:29:11;37.88;;;9.57;;
71106;SDS011;58763;47.982;11.516;2022-10-10T00:31:36;27.55;;;9.77;;
71106;SDS011;58763;47.982;11.516;2022-10-10T00:34:02;17.52;;;9.90;;
71106;SDS011;58763;47.982;11.516;2022-10-10T00:36:30;24.00;;;9.50;;
71106;SDS011;58763;47.982;11.516;2022-10-10T00:38:55;30.35;;;9.23;;
71106;SDS011;58763;47.982;11.516;2022-10-10T00:41:21;24.52;;;10.00;;
71106;SDS011;58763;47.982;11.516;2022-10-10T00:44:04;30.67;;;9.85;;
71106;SDS011;58763;47.982;11.516;2022-10-10T00:46:34;30.20;;;9.35;;
71106;SDS011;58763;47.982;11.516;2022-10-10T00:49:01;50.45;;;9.77;;
71106;SDS011;58763;47.982;11.516;2022-10-10T00:51:28;29.75;;;9.35;;
71106;SDS011;58763;47.982;11.516;2022-10-10T00:53:55;60.08;;;10.43;;
71106;SDS011;58763;47.982;11.516;2022-10-10T00:56:31;58.38;;;10.93;;
71106;SDS011;58763;47.982;11.516;2022-10-10T00:59:00;43.78;;;10.70;;
71106;SDS011;58763;47.982;11.516;2022-10-10T01:01:29;30.08;;;9.90;;
71106;SDS011;58763;47.982;11.516;2022-10-10T01:03:58;35.63;;;9.55;;
71106;SDS011;58763;47.982;11.516;2022-10-10T01:06:25;31.75;;;9.35;;
71106;SDS011;58763;47.982;11.516;2022-10-10T01:08:52;75.10;;;10.88;;
71106;SDS011;58763;47.982;11.516;2022-10-10T01:14:15;57.55;;;9.50;;
71106;SDS011;58763;47.982;11.516;2022-10-10T01:27:58;69.93;;;9.73;;
71106;SDS011;58763;47.982;11.516;2022-10-10T01:30:27;49.60;;;8.68;;
71106;SDS011;58763;47.982;11.516;2022-10-10T01:35:34;71.45;;;8.88;;
71106;SDS011;58763;47.982;11.516;2022-10-10T01:38:07;44.78;;;8.57;;
71106;SDS011;58763;47.982;11.516;2022-10-10T01:41:05;46.05;;;7.95;;
71106;SDS011;58763;47.982;11.516;2022-10-10T01:43:36;46.67;;;8.88;;
71106;SDS011;58763;47.982;11.516;2022-10-10T01:46:12;27.30;;;8.27;;
71106;SDS011;58763;47.982;11.516;2022-10-10T01:48:40;43.00;;;8.65;;
71106;SDS011;58763;47.982;11.516;2022-10-10T01:53:53;33.28;;;7.97;;
71106;SDS011;58763;47.982;11.516;2022-10-10T01:56:31;40.22;;;8.63;;
71106;SDS011;58763;47.982;11.516;2022-10-10T02:04:57;34.70;;;7.53;;
71106;SDS011;58763;47.982;11.516;2022-10-10T02:10:02;16.98;;;6.72;;
71106;SDS011;58763;47.982;11.516;2022-10-10T02:12:30;17.15;;;6.57;;
71106;SDS011;58763;47.982;11.516;2022-10-10T02:15:01;19.55;;;6.75;;
71106;SDS011;58763;47.982;11.516;2022-10-10T02:17:34;15.48;;;7.30;;
71106;SDS011;58763;47.982;11.516;2022-10-10T02:20:03;28.75;;;6.95;;
71106;SDS011;58763;47.982;11.516;2022-10-10T02:22:32;21.92;;;6.30;;
71106;SDS011;58763;47.982;11.516;2022-10-10T02:24:58;33.28;;;7.13;;
71106;SDS011;58763;47.982;11.516;2022-10-10T02:27:27;23.50;;;6.43;;
71106;SDS011;58763;47.982;11.516;2022-10-10T02:29:59;17.83;;;6.47;;
71106;SDS011;58763;47.982;11.516;2022-10-10T02:32:33;24.77;;;6.50;;
71106;SDS011;58763;47.982;11.516;2022-10-10T02:35:07;15.95;;;6.05;;
71106;SDS011;58763;47.982;11.516;2022-10-10T02:37:36;25.92;;;6.82;;
71106;SDS011;58763;47.982;11.516;2022-10-10T02:40:04;24.88;;;6.35;;
71106;SDS011;58763;47.982;11.516;2022-10-10T02:42:31;23.90;;;6.50;;
71106;SDS011;58763;47.982;11.516;2022-10-10T02:44:59;16.42;;;5.82;;
71106;SDS011;58763;47.982;11.516;2022-10-10T02:47:26;13.13;;;6.03;;
71106;SDS011;58763;47.982;11.516;2022-10-10T02:49:51;18.90;;;5.88;;
71106;SDS011;58763;47.982;11.516;2022-10-10T02:52:17;13.23;;;6.03;;
71106;SDS011;58763;47.982;11.516;2022-10-10T02:54:42;21.00;;;5.75;;
71106;SDS011;58763;47.982;11.516;2022-10-10T02:57:08;14.65;;;5.10;;
71106;SDS011;58763;47.982;11.516;2022-10-10T02:59:33;12.90;;;5.78;;
71106;SDS011;58763;47.982;11.516;2022-10-10T03:01:59;19.02;;;5.97;;
71106;SDS011;58763;47.982;11.516;2022-10-10T03:04:24;17.80;;;5.53;;
71106;SDS011;58763;47.982;11.516;2022-10-10T03:06:50;16.55;;;5.63;;
71106;SDS011;58763;47.982;11.516;2022-10-10T03:09:15;19.63;;;5.93;;
71106;SDS011;58763;47.982;11.516;2022-10-10T03:11:41;19.85;;;5.85;;
71106;SDS011;58763;47.982;11.516;2022-10-10T03:14:07;19.08;;;5.72;;
71106;SDS011;58763;47.982;11.516;2022-10-10T03:16:32;16.25;;;5.22;;
71106;SDS011;58763;47.982;11.516;2022-10-10T03:18:58;16.05;;;5.32;;
71106;SDS011;58763;47.982;11.516;2022-10-10T03:21:24;14.82;;;5.28;;
71106;SDS011;58763;47.982;11.516;2022-10-10T03:23:49;13.15;;;5.32;;
71106;SDS011;58763;47.982;11.516;2022-10-10T03:26:15;14.88;;;5.25;;
71106;SDS011;58763;47.982;11.516;2022-10-10T03:28:41;19.23;;;5.38;;
71106;SDS011;58763;47.982;11.516;2022-10-10T03:31:06;16.80;;;5.40;;
71106;SDS011;58763;47.982;11.516;2022-10-10T03:33:33;11.52;;;4.95;;
71106;SDS011;58763;47.982;11.516;2022-10-10T03:35:58;12.93;;;4.78;;
71106;SDS011;58763;47.982;11.516;2022-10-10T03:38:24;12.27;;;4.90;;
71106;SDS011;58763;47.982;11.516;2022-10-10T03:40:49;11.07;;;4.32;;
71106;SDS011;58763;47.982;11.516;2022-10-10T03:43:15;11.73;;;4.40;;
71106;SDS011;58763;47.982;11.516;2022-10-10T03:45:41;15.88;;;4.82;;
71106;SDS011;58763;47.982;11.516;2022-10-10T03:48:08;13.23;;;4.82;;
71106;SDS011;58763;47.982;11.516;2022-10-10T03:50:34;12.23;;;4.70;;
71106;SDS011;58763;47.982;11.516;2022-10-10T03:53:00;8.18;;;4.50;;
71106;SDS011;58763;47.982;11.516;2022-10-10T03:55:26;8.10;;;4.32;;
71106;SDS011;58763;47.982;11.516;2022-10-10T03:57:51;16.13;;;4.93;;
71106;SDS011;58763;47.982;11.516;2022-10-10T04:00:18;15.45;;;5.18;;
71106;SDS011;58763;47.982;11.516;2022-10-10T04:02:44;32.28;;;5.10;;
71106;SDS011;58763;47.982;11.516;2022-10-10T04:05:10;15.75;;;4.65;;
71106;SDS011;58763;47.982;11.516;2022-10-10T04:07:35;12.23;;;4.53;;
71106;SDS011;58763;47.982;11.516;2022-10-10T04:10:01;9.10;;;3.95;;
71106;SDS011;58763;47.982;11.516;2022-10-10T04:12:26;11.40;;;5.00;;
71106;SDS011;58763;47.982;11.516;2022-10-10T04:14:52;16.50;;;5.07;;
71106;SDS011;58763;47.982;11.516;2022-10-10T04:17:17;13.07;;;4.50;;
71106;SDS011;58763;47.982;11.516;2022-10-10T04:19:43;11.85;;;4.82;;
71106;SDS011;58763;47.982;11.516;2022-10-10T04:22:08;12.13;;;5.05;;
71106;SDS011;58763;47.982;11.516;2022-10-10T04:24:34;7.65;;;4.47;;
71106;SDS011;58763;47.982;11.516;2022-10-10T04:26:59;15.13;;;5.03;;
71106;SDS011;58763;47.982;11.516;2022-10-10T04:29:25;12.13;;;4.35;;
71106;SDS011;58763;47.982;11.516;2022-10-10T04:31:50;7.47;;;4.43;;
71106;SDS011;58763;47.982;11.516;2022-10-10T04:34:16;7.20;;;3.90;;
71106;SDS011;58763;47.982;11.516;2022-10-10T04:36:41;9.02;;;3.90;;
71106;SDS011;58763;47.982;11.516;2022-10-10T04:39:07;14.32;;;4.03;;
71106;SDS011;58763;47.982;11.516;2022-10-10T04:41:33;6.90;;;4.07;;
71106;SDS011;58763;47.982;11.516;2022-10-10T04:43:59;6.85;;;3.75;;
71106;SDS011;58763;47.982;11.516;2022-10-10T04:46:24;11.82;;;5.10;;
71106;SDS011;58763;47.982;11.516;2022-10-10T04:48:50;9.18;;;4.35;;
71106;SDS011;58763;47.982;11.516;2022-10-10T04:51:15;7.93;;;4.40;;
71106;SDS011;58763;47.982;11.516;2022-10-10T04:53:41;7.93;;;4.50;;
71106;SDS011;58763;47.982;11.516;2022-10-10T04:56:07;7.55;;;3.92;;
71106;SDS011;58763;47.982;11.516;2022-10-10T04:58:32;6.47;;;3.88;;
71106;SDS011;58763;47.982;11.516;2022-10-10T05:00:58;8.50;;;4.72;;
71106;SDS011;58763;47.982;11.516;2022-10-10T05:03:24;9.57;;;5.47;;
71106;SDS011;58763;47.982;11.516;2022-10-10T05:05:50;9.65;;;5.10;;
71106;SDS011;58763;47.982;11.516;2022-10-10T05:08:17;7.22;;;4.35;;
71106;SDS011;58763;47.982;11.516;2022-10-10T05:10:43;9.95;;;4.50;;
71106;SDS011;58763;47.982;11.516;2022-10-10T05:13:10;7.88;;;4.18;;
71106;SDS011;58763;47.982;11.516;2022-10-10T05:15:37;6.18;;;3.97;;
71106;SDS011;58763;47.982;11.516;2022-10-10T05:18:03;6.25;;;3.85;;
71106;SDS011;58763;47.982;11.516;2022-10-10T05:20:30;10.63;;;3.70;;
71106;SDS011;58763;47.982;11.516;2022-10-10T05:22:56;6.40;;;3.60;;
71106;SDS011;58763;47.982;11.516;2022-10-10T05:25:22;6.78;;;4.20;;
71106;SDS011;58763;47.982;11.516;2022-10-10T05:27:47;7.93;;;3.85;;
71106;SDS011;58763;47.982;11.516;2022-10-10T05:30:13;7.03;;;3.67;;
71106;SDS011;58763;47.982;11.516;2022-10-10T05:32:39;6.85;;;3.70;;
71106;SDS011;58763;47.982;11.516;2022-10-10T05:35:05;10.15;;;3.92;;
71106;SDS011;58763;47.982;11.516;2022-10-10T05:37:32;7.18;;;4.05;;
71106;SDS011;58763;47.982;11.516;2022-10-10T05:39:58;6.93;;;3.50;;
71106;SDS011;58763;47.982;11.516;2022-10-10T05:42:23;4.97;;;2.97;;
71106;SDS011;58763;47.982;11.516;2022-10-10T05:44:49;4.60;;;3.03;;
71106;SDS011;58763;47.982;11.516;2022-10-10T05:47:14;5.80;;;3.03;;
71106;SDS011;58763;47.982;11.516;2022-10-10T05:49:40;5.63;;;3.20;;
71106;SDS011;58763;47.982;11.516;2022-10-10T05:52:05;6.82;;;3.20;;
71106;SDS011;58763;47.982;11.516;2022-10-10T05:54:31;6.82;;;3.67;;
71106;SDS011;58763;47.982;11.516;2022-10-10T05:56:57;8.25;;;3.30;;
71106;SDS011;58763;47.982;11.516;2022-10-10T05:59:22;5.20;;;3.20;;
71106;SDS011;58763;47.982;11.516;2022-10-10T06:01:48;6.03;;;3.17;;
71106;SDS011;58763;47.982;11.516;2022-10-10T06:04:13;5.07;;;2.97;;
71106;SDS011;58763;47.982;11.516;2022-10-10T06:06:39;6.97;;;3.50;;
71106;SDS011;58763;47.982;11.516;2022-10-10T06:09:05;5.97;;;3.45;;
71106;SDS011;58763;47.982;11.516;2022-10-10T06:11:30;5.72;;;3.53;;
71106;SDS011;58763;47.982;11.516;2022-10-10T06:13:56;9.30;;;3.17;;
71106;SDS011;58763;47.982;11.516;2022-10-10T06:16:22;5.80;;;3.40;;
71106;SDS011;58763;47.982;11.516;2022-10-10T06:18:49;8.32;;;3.42;;
71106;SDS011;58763;47.982;11.516;2022-10-10T06:21:15;8.63;;;3.13;;
71106;SDS011;58763;47.982;11.516;2022-10-10T06:23:41;10.23;;;3.53;;
71106;SDS011;58763;47.982;11.516;2022-10-10T06:26:06;6.30;;;3.00;;
71106;SDS011;58763;47.982;11.516;2022-10-10T06:28:32;6.97;;;4.28;;
71106;SDS011;58763;47.982;11.516;2022-10-10T06:30:59;6.28;;;3.75;;
71106;SDS011;58763;47.982;11.516;2022-10-10T06:33:27;6.15;;;3.55;;
71106;SDS011;58763;47.982;11.516;2022-10-10T06:35:53;9.30;;;3.40;;
71106;SDS011;58763;47.982;11.516;2022-10-10T06:38:19;5.97;;;3.22;;
71106;SDS011;58763;47.982;11.516;2022-10-10T06:40:44;6.05;;;3.08;;
71106;SDS011;58763;47.982;11.516;2022-10-10T06:43:10;6.85;;;3.42;;
71106;SDS011;58763;47.982;11.516;2022-10-10T06:45:38;7.70;;;3.25;;
71106;SDS011;58763;47.982;11.516;2022-10-10T06:48:08;6.05;;;2.97;;
71106;SDS011;58763;47.982;11.516;2022-10-10T06:50:37;6.43;;;2.90;;
71106;SDS011;58763;47.982;11.516;2022-10-10T06:53:03;6.85;;;3.20;;
71106;SDS011;58763;47.982;11.516;2022-10-10T06:55:30;7.10;;;3.03;;
71106;SDS011;58763;47.982;11.516;2022-10-10T06:57:56;5.65;;;2.88;;
71106;SDS011;58763;47.982;11.516;2022-10-10T07:00:22;5.38;;;2.55;;
71106;SDS011;58763;47.982;11.516;2022-10-10T07:02:48;5.38;;;2.55;;
71106;SDS011;58763;47.982;11.516;2022-10-10T07:05:14;7.35;;;2.90;;
71106;SDS011;58763;47.982;11.516;2022-10-10T07:07:42;10.30;;;3.38;;
71106;SDS011;58763;47.982;11.516;2022-10-10T07:10:09;7.13;;;2.90;;
71106;SDS011;58763;47.982;11.516;2022-10-10T07:12:36;6.53;;;3.20;;
71106;SDS011;58763;47.982;11.516;2022-10-10T07:15:03;6.30;;;3.25;;
71106;SDS011;58763;47.982;11.516;2022-10-10T07:17:30;4.55;;;2.60;;
71106;SDS011;58763;47.982;11.516;2022-10-10T07:19:56;9.65;;;2.90;;
71106;SDS011;58763;47.982;11.516;2022-10-10T07:22:21;6.30;;;2.58;;
71106;SDS011;58763;47.982;11.516;2022-10-10T07:24:47;10.05;;;3.17;;
71106;SDS011;58763;47.982;11.516;2022-10-10T07:27:13;7.70;;;3.50;;
71106;SDS011;58763;47.982;11.516;2022-10-10T07:29:38;8.68;;;3.38;;
71106;SDS011;58763;47.982;11.516;2022-10-10T07:32:04;5.93;;;3.20;;
71106;SDS011;58763;47.982;11.516;2022-10-10T07:34:29;6.60;;;3.35;;
71106;SDS011;58763;47.982;11.516;2022-10-10T07:36:55;5.97;;;3.15;;
71106;SDS011;58763;47.982;11.516;2022-10-10T07:39:24;6.80;;;3.10;;
71106;SDS011;58763;47.982;11.516;2022-10-10T07:41:50;6.75;;;3.13;;
71106;SDS011;58763;47.982;11.516;2022-10-10T07:44:19;6.25;;;3.30;;
71106;SDS011;58763;47.982;11.516;2022-10-10T07:46:44;6.03;;;2.90;;
71106;SDS011;58763;47.982;11.516;2022-10-10T07:49:11;7.03;;;3.40;;
71106;SDS011;58763;47.982;11.516;2022-10-10T07:51:37;8.77;;;2.90;;
71106;SDS011;58763;47.982;11.516;2022-10-10T07:54:03;6.80;;;3.67;;
71106;SDS011;58763;47.982;11.516;2022-10-10T07:56:29;11.20;;;3.25;;
71106;SDS011;58763;47.982;11.516;2022-10-10T07:58:55;6.75;;;3.13;;
71106;SDS011;58763;47.982;11.516;2022-10-10T08:01:21;6.75;;;3.20;;
71106;SDS011;58763;47.982;11.516;2022-10-10T08:03:46;7.30;;;2.60;;
71106;SDS011;58763;47.982;11.516;2022-10-10T08:06:13;8.05;;;2.80;;
71106;SDS011;58763;47.982;11.516;2022-10-10T08:08:41;7.50;;;2.70;;
71106;SDS011;58763;47.982;11.516;2022-10-10T08:11:08;7.20;;;3.17;;
71106;SDS011;58763;47.982;11.516;2022-10-10T08:13:35;5.07;;;2.72;;
71106;SDS011;58763;47.982;11.516;2022-10-10T08:16:02;7.60;;;3.00;;
71106;SDS011;58763;47.982;11.516;2022-10-10T08:18:28;7.70;;;2.72;;
71106;SDS011;58763;47.982;11.516;2022-10-10T08:21:02;6.22;;;2.80;;
71106;SDS011;58763;47.982;11.516;2022-10-10T08:23:29;8.88;;;2.42;;
71106;SDS011;58763;47.982;11.516;2022-10-10T08:25:58;11.57;;;2.67;;
71106;SDS011;58763;47.982;11.516;2022-10-10T08:28:25;7.40;;;2.80;;
71106;SDS011;58763;47.982;11.516;2022-10-10T08:30:52;7.75;;;3.30;;
71106;SDS011;58763;47.982;11.516;2022-10-10T08:33:17;9.32;;;3.35;;
71106;SDS011;58763;47.982;11.516;2022-10-10T08:35:43;8.13;;;2.65;;
71106;SDS011;58763;47.982;11.516;2022-10-10T08:38:09;5.13;;;2.65;;
71106;SDS011;58763;47.982;11.516;2022-10-10T08:40:46;7.32;;;2.92;;
71106;SDS011;58763;47.982;11.516;2022-10-10T08:43:18;7.78;;;2.50;;
71106;SDS011;58763;47.982;11.516;2022-10-10T08:45:48;14.68;;;2.70;;
71106;SDS011;58763;47.982;11.516;2022-10-10T08:48:19;5.32;;;2.40;;
71106;SDS011;58763;47.982;11.516;2022-10-10T08:50:56;6.95;;;2.58;;
71106;SDS011;58763;47.982;11.516;2022-10-10T08:53:27;5.68;;;2.67;;
71106;SDS011;58763;47.982;11.516;2022-10-10T08:56:01;8.88;;;2.80;;
71106;SDS011;58763;47.982;11.516;2022-10-10T08:58:37;6.28;;;2.65;;
71106;SDS011;58763;47.982;11.516;2022-10-10T09:01:14;4.90;;;2.40;;
71106;SDS011;58763;47.982;11.516;2022-10-10T09:03:50;10.00;;;2.53;;
71106;SDS011;58763;47.982;11.516;2022-10-10T09:14:24;7.88;;;2.50;;
71106;SDS011;58763;47.982;11.516;2022-10-10T09:20:23;6.95;;;2.42;;
71106;SDS011;58763;47.982;11.516;2022-10-10T09:25:57;6.47;;;2.40;;
71106;SDS011;58763;47.982;11.516;2022-10-10T09:28:32;9.80;;;2.38;;
71106;SDS011;58763;47.982;11.516;2022-10-10T09:30:59;4.68;;;2.25;;
71106;SDS011;58763;47.982;11.516;2022-10-10T09:35:56;6.30;;;1.92;;
71106;SDS011;58763;47.982;11.516;2022-10-10T09:41:07;5.75;;;2.30;;
71106;SDS011;58763;47.982;11.516;2022-10-10T09:43:41;6.55;;;2.05;;
71106;SDS011;58763;47.982;11.516;2022-10-10T09:46:07;7.00;;;2.28;;
71106;SDS011;58763;47.982;11.516;2022-10-10T09:48:35;7.53;;;2.80;;
71106;SDS011;58763;47.982;11.516;2022-10-10T09:51:05;7.97;;;1.67;;
71106;SDS011;58763;47.982;11.516;2022-10-10T09:53:36;6.22;;;2.13;;
71106;SDS011;58763;47.982;11.516;2022-10-10T09:56:03;6.53;;;2.00;;
71106;SDS011;58763;47.982;11.516;2022-10-10T09:58:39;5.75;;;1.80;;
71106;SDS011;58763;47.982;11.516;2022-10-10T10:03:38;5.45;;;1.80;;
71106;SDS011;58763;47.982;11.516;2022-10-10T10:06:04;7.60;;;2.00;;
71106;SDS011;58763;47.982;11.516;2022-10-10T10:08:31;5.22;;;1.50;;
71106;SDS011;58763;47.982;11.516;2022-10-10T10:10:58;6.20;;;1.60;;
71106;SDS011;58763;47.982;11.516;2022-10-10T10:13:31;7.70;;;1.83;;
71106;SDS011;58763;47.982;11.516;2022-10-10T10:16:04;6.47;;;1.30;;
71106;SDS011;58763;47.982;11.516;2022-10-10T10:23:31;6.40;;;1.70;;
71106;SDS011;58763;47.982;11.516;2022-10-10T10:26:03;5.45;;;1.58;;
71106;SDS011;58763;47.982;11.516;2022-10-10T10:28:30;5.00;;;1.50;;
71106;SDS011;58763;47.982;11.516;2022-10-10T10:31:04;5.20;;;1.50;;
71106;SDS011;58763;47.982;11.516;2022-10-10T10:33:33;6.55;;;1.45;;
71106;SDS011;58763;47.982;11.516;2022-10-10T10:38:45;3.88;;;1.52;;
71106;SDS011;58763;47.982;11.516;2022-10-10T10:41:18;3.88;;;1.52;;
71106;SDS011;58763;47.982;11.516;2022-10-10T10:44:13;2.97;;;1.33;;
71106;SDS011;58763;47.982;11.516;2022-10-10T11:00:22;4.78;;;1.92;;
71106;SDS011;58763;47.982;11.516;2022-10-10T11:03:01;3.88;;;1.10;;
71106;SDS011;58763;47.982;11.516;2022-10-10T11:05:52;2.70;;;1.10;;
71106;SDS011;58763;47.982;11.516;2022-10-10T11:11:18;5.20;;;1.30;;
71106;SDS011;58763;47.982;11.516;2022-10-10T11:13:57;4.80;;;1.20;;
71106;SDS011;58763;47.982;11.516;2022-10-10T11:16:26;4.88;;;1.20;;
71106;SDS011;58763;47.982;11.516;2022-10-10T11:21:36;2.97;;;1.10;;
71106;SDS011;58763;47.982;11.516;2022-10-10T11:24:10;4.65;;;1.50;;
71106;SDS011;58763;47.982;11.516;2022-10-10T11:26:47;5.53;;;1.63;;
71106;SDS011;58763;47.982;11.516;2022-10-10T11:29:26;4.20;;;1.13;;
71106;SDS011;58763;47.982;11.516;2022-10-10T11:31:59;4.88;;;1.38;;
71106;SDS011;58763;47.982;11.516;2022-10-10T11:37:18;3.35;;;1.15;;
71106;SDS011;58763;47.982;11.516;2022-10-10T11:39:54;5.50;;;1.45;;
71106;SDS011;58763;47.982;11.516;2022-10-10T11:42:23;4.75;;;1.40;;
71106;SDS011;58763;47.982;11.516;2022-10-10T11:45:01;7.57;;;1.20;;
71106;SDS011;58763;47.982;11.516;2022-10-10T11:47:33;3.33;;;1.10;;
71106;SDS011;58763;47.982;11.516;2022-10-10T11:50:10;4.65;;;1.80;;
71106;SDS011;58763;47.982;11.516;2022-10-10T11:53:29;4.32;;;1.48;;
71106;SDS011;58763;47.982;11.516;2022-10-10T11:55:52;4.65;;;1.52;;
71106;SDS011;58763;47.982;11.516;2022-10-10T12:00:58;6.32;;;1.20;;
71106;SDS011;58763;47.982;11.516;2022-10-10T12:03:30;7.22;;;2.17;;
71106;SDS011;58763;47.982;11.516;2022-10-10T12:06:00;5.00;;;1.52;;
71106;SDS011;58763;47.982;11.516;2022-10-10T12:13:53;4.60;;;1.27;;
71106;SDS011;58763;47.982;11.516;2022-10-10T12:16:22;5.18;;;1.17;;
71106;SDS011;58763;47.982;11.516;2022-10-10T12:18:52;3.65;;;1.30;;
71106;SDS011;58763;47.982;11.516;2022-10-10T12:21:24;3.70;;;1.02;;
71106;SDS011;58763;47.982;11.516;2022-10-10T12:27:07;4.78;;;1.20;;
71106;SDS011;58763;47.982;11.516;2022-10-10T12:37:21;3.28;;;1.30;;
71106;SDS011;58763;47.982;11.516;2022-10-10T12:42:39;5.20;;;1.40;;
71106;SDS011;58763;47.982;11.516;2022-10-10T12:47:55;3.67;;;1.40;;
71106;SDS011;58763;47.982;11.516;2022-10-10T12:52:59;3.60;;;1.47;;
71106;SDS011;58763;47.982;11.516;2022-10-10T12:58:06;4.95;;;1.40;;
71106;SDS011;58763;47.982;11.516;2022-10-10T13:00:39;6.85;;;1.33;;
71106;SDS011;58763;47.982;11.516;2022-10-10T13:03:19;5.78;;;1.40;;
71106;SDS011;58763;47.982;11.516;2022-10-10T13:08:21;5.80;;;1.55;;
71106;SDS011;58763;47.982;11.516;2022-10-10T13:11:08;4.50;;;1.77;;
71106;SDS011;58763;47.982;11.516;2022-10-10T13:13:37;6.28;;;1.50;;
71106;SDS011;58763;47.982;11.516;2022-10-10T13:16:08;5.78;;;1.40;;
71106;SDS011;58763;47.982;11.516;2022-10-10T13:21:05;4.05;;;1.40;;
71106;SDS011;58763;47.982;11.516;2022-10-10T13:23:39;3.33;;;1.30;;
71106;SDS011;58763;47.982;11.516;2022-10-10T13:26:14;5.80;;;1.33;;
71106;SDS011;58763;47.982;11.516;2022-10-10T13:29:11;4.13;;;1.25;;
71106;SDS011;58763;47.982;11.516;2022-10-10T13:31:47;4.40;;;1.30;;
71106;SDS011;58763;47.982;11.516;2022-10-10T13:34:18;4.85;;;1.50;;
71106;SDS011;58763;47.982;11.516;2022-10-10T13:36:51;5.50;;;1.38;;
71106;SDS011;58763;47.982;11.516;2022-10-10T13:39:19;3.23;;;1.17;;
71106;SDS011;58763;47.982;11.516;2022-10-10T13:41:45;5.13;;;1.25;;
71106;SDS011;58763;47.982;11.516;2022-10-10T13:44:15;6.13;;;1.40;;
71106;SDS011;58763;47.982;11.516;2022-10-10T13:46:46;5.55;;;1.40;;
71106;SDS011;58763;47.982;11.516;2022-10-10T13:49:28;5.57;;;1.17;;
71106;SDS011;58763;47.982;11.516;2022-10-10T13:52:05;4.72;;;1.38;;
71106;SDS011;58763;47.982;11.516;2022-10-10T13:57:32;4.85;;;1.55;;
71106;SDS011;58763;47.982;11.516;2022-10-10T14:00:06;4.20;;;1.30;;
71106;SDS011;58763;47.982;11.516;2022-10-10T14:02:41;4.35;;;1.27;;
71106;SDS011;58763;47.982;11.516;2022-10-10T14:05:14;4.80;;;1.65;;
71106;SDS011;58763;47.982;11.516;2022-10-10T14:07:46;5.32;;;1.42;;
71106;SDS011;58763;47.982;11.516;2022-10-10T14:10:16;4.97;;;1.60;;
71106;SDS011;58763;47.982;11.516;2022-10-10T14:12:48;5.97;;;1.40;;
71106;SDS011;58763;47.982;11.516;2022-10-10T14:18:20;4.80;;;1.50;;
71106;SDS011;58763;47.982;11.516;2022-10-10T14:20:50;2.53;;;1.17;;
71106;SDS011;58763;47.982;11.516;2022-10-10T14:23:17;5.55;;;1.50;;
71106;SDS011;58763;47.982;11.516;2022-10-10T14:25:44;3.70;;;1.38;;
71106;SDS011;58763;47.982;11.516;2022-10-10T14:30:41;6.65;;;1.40;;
71106;SDS011;58763;47.982;11.516;2022-10-10T14:33:10;5.90;;;1.80;;
71106;SDS011;58763;47.982;11.516;2022-10-10T14:35:37;4.38;;;1.38;;
71106;SDS011;58763;47.982;11.516;2022-10-10T14:38:03;8.15;;;1.52;;
71106;SDS011;58763;47.982;11.516;2022-10-10T14:40:30;6.03;;;1.60;;
71106;SDS011;58763;47.982;11.516;2022-10-10T14:42:57;4.50;;;1.58;;
71106;SDS011;58763;47.982;11.516;2022-10-10T14:45:23;5.30;;;1.30;;
71106;SDS011;58763;47.982;11.516;2022-10-10T14:47:49;5.88;;;1.50;;
71106;SDS011;58763;47.982;11.516;2022-10-10T14:50:17;5.25;;;1.45;;
71106;SDS011;58763;47.982;11.516;2022-10-10T14:52:45;5.05;;;1.50;;
71106;SDS011;58763;47.982;11.516;2022-10-10T14:55:11;6.63;;;1.42;;
71106;SDS011;58763;47.982;11.516;2022-10-10T14:57:37;6.07;;;1.73;;
71106;SDS011;58763;47.982;11.516;2022-10-10T15:00:04;4.57;;;1.60;;
71106;SDS011;58763;47.982;11.516;2022-10-10T15:02:31;5.60;;;1.30;;
71106;SDS011;58763;47.982;11.516;2022-10-10T15:04:57;5.47;;;1.45;;
71106;SDS011;58763;47.982;11.516;2022-10-10T15:07:23;4.75;;;1.33;;
71106;SDS011;58763;47.982;11.516;2022-10-10T15:09:48;3.67;;;1.40;;
71106;SDS011;58763;47.982;11.516;2022-10-10T15:12:14;7.72;;;1.80;;
71106;SDS011;58763;47.982;11.516;2022-10-10T15:14:40;5.65;;;1.58;;
71106;SDS011;58763;47.982;11.516;2022-10-10T15:17:06;5.35;;;1.50;;
71106;SDS011;58763;47.982;11.516;2022-10-10T15:19:31;3.85;;;1.40;;
71106;SDS011;58763;47.982;11.516;2022-10-10T15:21:57;4.32;;;1.52;;
71106;SDS011;58763;47.982;11.516;2022-10-10T15:24:22;5.32;;;1.67;;
71106;SDS011;58763;47.982;11.516;2022-10-10T15:26:48;10.10;;;1.80;;
71106;SDS011;58763;47.982;11.516;2022-10-10T15:29:14;5.75;;;1.58;;
71106;SDS011;58763;47.982;11.516;2022-10-10T15:31:39;12.27;;;1.98;;
71106;SDS011;58763;47.982;11.516;2022-10-10T15:34:05;8.48;;;1.80;;
71106;SDS011;58763;47.982;11.516;2022-10-10T15:36:30;6.90;;;2.20;;
71106;SDS011;58763;47.982;11.516;2022-10-10T15:38:56;5.45;;;1.77;;
71106;SDS011;58763;47.982;11.516;2022-10-10T15:41:23;4.72;;;1.63;;
71106;SDS011;58763;47.982;11.516;2022-10-10T15:43:49;5.80;;;1.98;;
71106;SDS011;58763;47.982;11.516;2022-10-10T15:46:20;4.25;;;1.55;;
71106;SDS011;58763;47.982;11.516;2022-10-10T15:48:47;7.47;;;1.55;;
71106;SDS011;58763;47.982;11.516;2022-10-10T15:51:13;8.82;;;1.85;;
71106;SDS011;58763;47.982;11.516;2022-10-10T15:53:39;9.07;;;1.52;;
71106;SDS011;58763;47.982;11.516;2022-10-10T15:56:05;7.35;;;1.60;;
71106;SDS011;58763;47.982;11.516;2022-10-10T15:58:33;4.32;;;1.23;;
71106;SDS011;58763;47.982;11.516;2022-10-10T16:00:59;8.05;;;1.92;;
71106;SDS011;58763;47.982;11.516;2022-10-10T16:03:24;8.85;;;1.83;;
71106;SDS011;58763;47.982;11.516;2022-10-10T16:05:50;5.38;;;1.25;;
71106;SDS011;58763;47.982;11.516;2022-10-10T16:08:15;7.68;;;1.52;;
71106;SDS011;58763;47.982;11.516;2022-10-10T16:10:43;4.82;;;1.65;;
71106;SDS011;58763;47.982;11.516;2022-10-10T16:13:08;5.40;;;1.50;;
71106;SDS011;58763;47.982;11.516;2022-10-10T16:15:35;5.70;;;1.60;;
71106;SDS011;58763;47.982;11.516;2022-10-10T16:18:01;3.92;;;1.50;;
71106;SDS011;58763;47.982;11.516;2022-10-10T16:20:26;6.13;;;1.60;;
71106;SDS011;58763;47.982;11.516;2022-10-10T16:22:52;5.25;;;1.50;;
71106;SDS011;58763;47.982;11.516;2022-10-10T16:25:18;6.65;;;1.58;;
71106;SDS011;58763;47.982;11.516;2022-10-10T16:27:44;5.80;;;1.63;;
71106;SDS011;58763;47.982;11.516;2022-10-10T16:30:10;7.55;;;1.85;;
71106;SDS011;58763;47.982;11.516;2022-10-10T16:32:35;6.40;;;2.20;;
71106;SDS011;58763;47.982;11.516;2022-10-10T16:35:01;10.60;;;1.90;;
71106;SDS011;58763;47.982;11.516;2022-10-10T16:37:26;8.70;;;2.38;;
71106;SDS011;58763;47.982;11.516;2022-10-10T16:39:52;8.10;;;5.57;;